createdAt,value
2023-04-06T00:00:47.501Z,63.89
2023-04-06T00:03:50.551Z,64.21
2023-04-06T00:06:53.217Z,64.34
2023-04-06T00:09:55.891Z,64.50
2023-04-06T00:12:58.580Z,64.43
2023-04-06T00:16:03.612Z,64.49
2023-04-06T00:19:06.625Z,64.47
2023-04-06T00:22:09.563Z,64.64
2023-04-06T00:25:12.493Z,64.68
2023-04-06T00:28:15.501Z,64.74
2023-04-06T00:31:19.540Z,64.68
2023-04-06T00:34:22.290Z,64.58
2023-04-06T00:37:25.042Z,64.90
2023-04-06T00:40:29.365Z,65.03
2023-04-06T00:43:32.042Z,64.88
2023-04-06T00:46:36.635Z,65.17
2023-04-06T00:49:39.364Z,65.75
2023-04-06T00:52:42.010Z,65.89
2023-04-06T00:55:44.705Z,66.48
2023-04-06T00:58:47.499Z,66.45
2023-04-06T01:01:51.717Z,67.33
2023-04-06T01:04:54.986Z,67.30
2023-04-06T01:07:58.117Z,68.49
2023-04-06T01:11:02.016Z,68.41
2023-04-06T01:14:05.453Z,68.17
2023-04-06T01:17:09.589Z,68.00
2023-04-06T01:20:12.245Z,67.79
2023-04-06T01:23:16.418Z,67.76
2023-04-06T01:26:19.252Z,67.65
2023-04-06T01:29:21.980Z,67.58
2023-04-06T01:32:24.816Z,68.13
2023-04-06T01:35:28.405Z,68.05
2023-04-06T01:38:32.477Z,68.19
2023-04-06T01:41:35.400Z,68.06
2023-04-06T01:44:38.190Z,68.41
2023-04-06T01:47:40.894Z,68.53
2023-04-06T01:50:43.576Z,68.54
2023-04-06T01:53:47.605Z,69.93
2023-04-06T01:56:51.613Z,69.91
2023-04-06T01:59:54.329Z,69.76
2023-04-06T02:02:57.040Z,70.91
2023-04-06T02:06:00.289Z,72.23
2023-04-06T02:09:04.622Z,71.87
2023-04-06T02:12:07.830Z,71.36
2023-04-06T02:15:11.460Z,72.09
2023-04-06T02:18:14.150Z,71.63
2023-04-06T02:21:21.002Z,71.51
2023-04-06T02:24:25.070Z,71.69
2023-04-06T02:27:27.756Z,71.22
2023-04-06T02:30:38.305Z,71.09
2023-04-06T02:33:41.030Z,70.80
2023-04-06T02:36:43.833Z,70.70
2023-04-06T02:39:48.323Z,70.80
2023-04-06T02:42:51.006Z,71.44
2023-04-06T02:45:53.712Z,71.40
2023-04-06T02:48:57.254Z,71.07
2023-04-06T02:51:59.948Z,71.66
2023-04-06T02:55:04.075Z,71.44
2023-04-06T02:58:06.837Z,71.46
2023-04-06T03:01:09.924Z,72.22
2023-04-06T03:04:12.862Z,72.04
2023-04-06T03:07:15.907Z,71.71
2023-04-06T03:10:19.941Z,72.32
2023-04-06T03:13:23.076Z,72.64
2023-04-06T03:16:25.888Z,72.35
2023-04-06T03:19:28.739Z,72.52
2023-04-06T03:22:31.490Z,72.85
2023-04-06T03:25:35.594Z,72.73
2023-04-06T03:28:38.354Z,72.94
2023-04-06T03:31:41.067Z,72.88
2023-04-06T03:34:43.802Z,73.37
2023-04-06T03:37:46.720Z,74.17
2023-04-06T03:40:50.782Z,74.42
2023-04-06T03:43:53.462Z,74.71
2023-04-06T03:46:57.085Z,74.42
2023-04-06T03:49:59.816Z,74.14
2023-04-06T03:53:04.061Z,74.77
2023-04-06T03:56:08.766Z,74.55
2023-04-06T03:59:11.693Z,74.00
2023-04-06T04:02:14.536Z,74.67
2023-04-06T04:05:17.366Z,74.77
2023-04-06T04:08:20.351Z,74.38
2023-04-06T04:11:24.363Z,74.28
2023-04-06T04:14:27.508Z,74.49
2023-04-06T04:17:30.199Z,74.34
2023-04-06T04:20:32.928Z,74.34
2023-04-06T04:23:37.354Z,74.28
2023-04-06T04:26:42.385Z,74.35
2023-04-06T04:29:45.217Z,74.28
2023-04-06T04:32:47.981Z,74.36
2023-04-06T04:35:50.863Z,75.84
2023-04-06T04:38:53.792Z,75.96
2023-04-06T04:41:57.890Z,76.00
2023-04-06T04:45:00.789Z,75.85
2023-04-06T04:48:03.685Z,76.33
2023-04-06T04:51:07.175Z,76.69
2023-04-06T04:54:09.915Z,77.00
2023-04-06T04:57:14.055Z,77.39
2023-04-06T05:00:17.169Z,77.39
2023-04-06T05:03:23.213Z,76.92
2023-04-06T05:06:26.556Z,77.18
2023-04-06T05:09:31.548Z,77.33
2023-04-06T05:12:35.812Z,77.36
2023-04-06T05:15:41.190Z,77.59
2023-04-06T05:18:44.007Z,77.39
2023-04-06T05:21:46.702Z,77.59
2023-04-06T05:24:49.341Z,77.17
2023-04-06T05:27:53.546Z,77.24
2023-04-06T05:30:56.455Z,77.24
2023-04-06T05:33:59.558Z,77.09
2023-04-06T05:37:02.298Z,77.46
2023-04-06T05:40:06.002Z,79.80
2023-04-06T05:43:10.372Z,79.45
2023-04-06T05:46:13.145Z,79.25
2023-04-06T05:49:15.894Z,78.81
2023-04-06T05:52:19.568Z,77.45
2023-04-06T05:55:22.262Z,76.44
2023-04-06T05:58:29.360Z,76.13
2023-04-06T06:01:32.035Z,75.97
2023-04-06T06:04:34.906Z,76.30
2023-04-06T06:07:37.668Z,75.58
2023-04-06T06:10:41.084Z,72.44
2023-04-06T06:13:45.244Z,70.08
2023-04-06T06:16:48.075Z,67.42
2023-04-06T06:19:50.772Z,65.35
2023-04-06T06:22:53.614Z,64.03
2023-04-06T06:25:58.897Z,62.63
2023-04-06T06:29:03.126Z,61.49
2023-04-06T06:32:06.198Z,59.80
2023-04-06T06:35:09.777Z,59.08
2023-04-06T06:38:12.472Z,59.50
2023-04-06T06:41:15.198Z,59.72
2023-04-06T06:44:19.311Z,59.05
2023-04-06T06:47:22.255Z,58.81
2023-04-06T06:50:24.972Z,57.83
2023-04-06T06:53:27.634Z,57.58
2023-04-06T06:56:32.486Z,56.45
2023-04-06T06:59:36.743Z,55.70
2023-04-06T07:02:39.593Z,56.19
2023-04-06T07:05:50.116Z,56.33
2023-04-06T07:08:52.883Z,56.09
2023-04-06T07:11:57.430Z,58.09
2023-04-06T07:15:02.137Z,59.21
2023-04-06T07:18:05.096Z,58.89
2023-04-06T07:21:08.429Z,60.43
2023-04-06T07:24:11.405Z,58.88
2023-04-06T07:27:14.233Z,58.84
2023-04-06T07:30:19.209Z,59.98
2023-04-06T07:33:21.997Z,59.04
2023-04-06T07:36:24.713Z,58.53
2023-04-06T07:39:27.859Z,57.77
2023-04-06T07:42:30.666Z,58.49
2023-04-06T07:45:34.716Z,57.83
2023-04-06T07:48:38.574Z,58.08
2023-04-06T07:51:41.709Z,58.71
2023-04-06T07:54:45.167Z,58.98
2023-04-06T07:57:47.854Z,59.33
2023-04-06T08:00:51.885Z,58.93
2023-04-06T08:03:56.686Z,58.66
2023-04-06T08:06:59.536Z,58.28
2023-04-06T08:10:02.203Z,58.27
2023-04-06T08:13:04.891Z,57.96
2023-04-06T08:16:09.756Z,57.88
2023-04-06T08:19:12.534Z,57.32
2023-04-06T08:22:15.400Z,57.64
2023-04-06T08:25:18.379Z,56.39
2023-04-06T08:28:21.143Z,56.10
2023-04-06T08:31:25.449Z,56.47
2023-04-06T08:34:28.241Z,54.88
2023-04-06T08:37:30.950Z,54.73
2023-04-06T08:40:38.529Z,54.27
2023-04-06T08:43:48.262Z,53.62
2023-04-06T08:46:53.942Z,52.99
2023-04-06T08:49:57.635Z,52.17
2023-04-06T08:53:02.238Z,51.55
2023-04-06T08:56:07.690Z,50.94
2023-04-06T08:59:11.361Z,50.19
2023-04-06T09:02:19.466Z,50.03
2023-04-06T09:05:22.645Z,51.19
2023-04-06T09:08:25.945Z,49.95
2023-04-06T09:11:28.665Z,50.54
2023-04-06T09:14:38.589Z,49.00
2023-04-06T09:17:47.310Z,48.78
2023-04-06T09:20:59.453Z,49.34
2023-04-06T09:24:03.053Z,47.07
2023-04-06T09:27:05.880Z,47.94
2023-04-06T09:30:10.912Z,48.47
2023-04-06T09:33:14.962Z,47.68
2023-04-06T09:36:17.674Z,47.79
2023-04-06T09:39:23.211Z,46.77
2023-04-06T09:42:26.971Z,46.95
2023-04-06T09:45:32.089Z,46.36
2023-04-06T09:48:38.007Z,45.24
2023-04-06T09:51:42.716Z,46.02
2023-04-06T09:54:48.977Z,44.98
2023-04-06T09:57:57.686Z,45.34
2023-04-06T10:01:05.270Z,45.44
2023-04-06T10:04:21.701Z,45.17
2023-04-06T10:07:25.341Z,43.90
2023-04-06T10:10:28.440Z,43.09
2023-04-06T10:13:31.153Z,42.57
2023-04-06T10:16:34.553Z,41.92
2023-04-06T10:19:48.319Z,41.17
2023-04-06T10:22:58.018Z,40.95
2023-04-06T10:26:02.689Z,38.51
2023-04-06T10:29:06.378Z,39.14
2023-04-06T10:32:09.174Z,38.52
2023-04-06T10:35:15.381Z,38.18
2023-04-06T10:38:22.688Z,38.07
2023-04-06T10:41:26.720Z,37.72
2023-04-06T10:44:29.404Z,37.44
2023-04-06T10:47:41.082Z,37.49
2023-04-06T10:50:46.165Z,37.94
2023-04-06T10:53:50.504Z,37.77
2023-04-06T10:56:53.185Z,38.03
2023-04-06T10:59:55.891Z,35.69
2023-04-06T11:03:01.450Z,33.50
2023-04-06T11:06:05.534Z,34.39
2023-04-06T11:09:08.217Z,35.08
2023-04-06T11:12:22.902Z,34.05
2023-04-06T11:15:25.623Z,34.27
2023-04-06T11:18:28.365Z,33.65
2023-04-06T11:21:40.085Z,33.44
2023-04-06T11:24:42.844Z,33.88
2023-04-06T11:27:46.666Z,33.53
2023-04-06T11:30:49.455Z,32.14
2023-04-06T11:33:57.596Z,32.65
2023-04-06T11:37:05.589Z,31.41
2023-04-06T11:40:10.635Z,31.99
2023-04-06T11:43:13.644Z,32.13
2023-04-06T11:46:21.056Z,30.90
2023-04-06T11:49:23.922Z,31.03
2023-04-06T11:52:30.619Z,30.52
2023-04-06T11:55:40.138Z,29.38
2023-04-06T11:58:42.928Z,29.14
2023-04-06T12:01:47.219Z,28.96
2023-04-06T12:04:50.012Z,29.60
2023-04-06T12:07:54.124Z,29.16
2023-04-06T12:10:56.800Z,29.37
2023-04-06T12:14:00.400Z,28.87
2023-04-06T12:17:04.044Z,29.03
2023-04-06T12:20:22.154Z,27.95
2023-04-06T12:23:29.093Z,28.64
2023-04-06T12:26:32.674Z,28.76
2023-04-06T12:29:35.367Z,28.53
2023-04-06T12:32:38.079Z,28.80
2023-04-06T12:35:40.935Z,29.18
2023-04-06T12:38:46.721Z,29.25
2023-04-06T12:41:49.570Z,28.79
2023-04-06T12:44:52.443Z,28.95
2023-04-06T12:47:55.163Z,29.13
2023-04-06T12:50:59.477Z,28.59
2023-04-06T12:54:03.607Z,28.53
2023-04-06T12:57:06.379Z,27.18
2023-04-06T13:00:10.122Z,26.95
2023-04-06T13:03:13.110Z,27.60
2023-04-06T13:06:16.358Z,28.12
2023-04-06T13:09:20.581Z,28.29
2023-04-06T13:12:23.295Z,28.75
2023-04-06T13:15:26.599Z,28.38
2023-04-06T13:18:29.584Z,28.15
2023-04-06T13:21:32.535Z,28.28
2023-04-06T13:24:36.696Z,28.29
2023-04-06T13:27:39.546Z,28.40
2023-04-06T13:30:43.303Z,27.77
2023-04-06T13:33:46.364Z,28.03
2023-04-06T13:36:49.356Z,28.08
2023-04-06T13:39:53.594Z,28.21
2023-04-06T13:42:56.479Z,28.17
2023-04-06T13:46:02.078Z,28.22
2023-04-06T13:49:04.902Z,27.49
2023-04-06T13:52:07.864Z,28.03
2023-04-06T13:55:12.194Z,28.43
2023-04-06T13:58:14.960Z,27.97
2023-04-06T14:01:17.890Z,26.92
2023-04-06T14:04:20.768Z,27.21
2023-04-06T14:07:24.746Z,27.64
2023-04-06T14:10:29.188Z,27.53
2023-04-06T14:13:32.331Z,27.47
2023-04-06T14:16:35.162Z,27.88
2023-04-06T14:19:38.668Z,27.97
2023-04-06T14:22:42.081Z,28.10
2023-04-06T14:25:46.153Z,28.41
2023-04-06T14:28:49.180Z,27.59
2023-04-06T14:31:51.860Z,27.88
2023-04-06T14:34:54.549Z,28.27
2023-04-06T14:37:59.102Z,28.52
2023-04-06T14:41:03.461Z,28.18
2023-04-06T14:44:06.826Z,28.29
2023-04-06T14:47:09.592Z,27.92
2023-04-06T14:50:12.475Z,28.15
2023-04-06T14:53:15.224Z,27.22
2023-04-06T14:56:23.363Z,27.73
2023-04-06T14:59:26.178Z,28.18
2023-04-06T15:02:29.167Z,27.77
2023-04-06T15:05:32.287Z,27.85
2023-04-06T15:08:35.453Z,27.52
2023-04-06T15:11:39.511Z,27.55
2023-04-06T15:14:42.212Z,27.51
2023-04-06T15:17:44.944Z,27.42
2023-04-06T15:20:47.665Z,27.20
2023-04-06T15:23:50.934Z,27.62
2023-04-06T15:26:55.012Z,27.22
2023-04-06T15:29:59.417Z,27.47
2023-04-06T15:33:04.499Z,27.88
2023-04-06T15:36:10.513Z,27.86
2023-04-06T15:39:14.497Z,27.55
2023-04-06T15:42:18.728Z,27.12
2023-04-06T15:45:21.373Z,26.88
2023-04-06T15:48:25.769Z,27.29
2023-04-06T15:51:30.119Z,27.08
2023-04-06T15:54:33.667Z,27.23
2023-04-06T15:57:37.756Z,27.56
2023-04-06T16:00:40.629Z,27.69
2023-04-06T16:03:43.686Z,27.45
2023-04-06T16:06:46.761Z,27.56
2023-04-06T16:09:50.416Z,27.47
2023-04-06T16:12:55.603Z,27.67
2023-04-06T16:15:58.397Z,27.88
2023-04-06T16:19:02.152Z,27.91
2023-04-06T16:22:04.857Z,28.19
2023-04-06T16:25:08.894Z,28.46
2023-04-06T16:28:13.170Z,28.37
2023-04-06T16:31:21.167Z,28.21
2023-04-06T16:34:24.006Z,28.37
2023-04-06T16:37:29.627Z,28.44
2023-04-06T16:40:32.332Z,28.47
2023-04-06T16:43:36.468Z,28.88
2023-04-06T16:46:39.947Z,28.76
2023-04-06T16:49:43.188Z,28.67
2023-04-06T16:52:45.944Z,28.85
2023-04-06T16:55:48.686Z,28.77
2023-04-06T16:58:52.844Z,29.13
2023-04-06T17:01:56.163Z,29.22
2023-04-06T17:04:58.957Z,29.05
2023-04-06T17:08:02.131Z,29.32
2023-04-06T17:11:05.101Z,29.29
2023-04-06T17:14:10.698Z,29.40
2023-04-06T17:17:13.452Z,29.81
2023-04-06T17:20:17.849Z,29.64
2023-04-06T17:23:21.177Z,29.70
2023-04-06T17:26:24.091Z,29.93
2023-04-06T17:29:28.143Z,29.83
2023-04-06T17:32:30.974Z,30.22
2023-04-06T17:35:33.621Z,30.40
2023-04-06T17:38:36.777Z,30.32
2023-04-06T17:41:39.755Z,30.90
2023-04-06T17:44:43.937Z,30.80
2023-04-06T17:47:46.702Z,31.09
2023-04-06T17:50:49.668Z,31.11
2023-04-06T17:53:52.654Z,31.12
2023-04-06T17:56:55.853Z,31.51
2023-04-06T17:59:59.981Z,31.69
2023-04-06T18:03:03.822Z,32.15
2023-04-06T18:06:11.448Z,32.92
2023-04-06T18:09:14.140Z,34.16
2023-04-06T18:12:16.798Z,34.89
2023-04-06T18:15:20.975Z,35.66
2023-04-06T18:18:23.744Z,35.94
2023-04-06T18:21:27.325Z,36.28
2023-04-06T18:24:41.157Z,35.95
2023-04-06T18:27:44.564Z,36.27
2023-04-06T18:30:49.141Z,36.39
2023-04-06T18:33:53.768Z,36.03
2023-04-06T18:36:57.343Z,36.51
2023-04-06T18:40:00.114Z,36.54
2023-04-06T18:43:04.667Z,36.80
2023-04-06T18:46:13.716Z,37.09
2023-04-06T18:49:16.716Z,37.17
2023-04-06T18:52:19.513Z,37.14
2023-04-06T18:55:22.180Z,37.22
2023-04-06T18:58:26.122Z,37.80
2023-04-06T19:01:32.118Z,37.19
2023-04-06T19:04:35.107Z,36.08
2023-04-06T19:07:38.043Z,35.47
2023-04-06T19:10:40.897Z,35.05
2023-04-06T19:13:49.951Z,34.28
2023-04-06T19:16:54.336Z,34.53
2023-04-06T19:19:57.753Z,34.35
2023-04-06T19:23:00.660Z,34.55
2023-04-06T19:26:03.726Z,34.47
2023-04-06T19:29:06.444Z,34.83
2023-04-06T19:32:11.838Z,34.95
2023-04-06T19:35:14.694Z,35.35
2023-04-06T19:38:17.600Z,34.97
2023-04-06T19:41:21.507Z,35.34
2023-04-06T19:44:24.732Z,35.87
2023-04-06T19:47:28.987Z,35.82
2023-04-06T19:50:31.800Z,35.75
2023-04-06T19:53:34.537Z,35.96
2023-04-06T19:56:37.232Z,36.12
2023-04-06T19:59:40.087Z,36.14
2023-04-06T20:02:44.477Z,36.09
2023-04-06T20:05:47.723Z,35.98
2023-04-06T20:08:50.636Z,36.62
2023-04-06T20:11:54.129Z,36.59
2023-04-06T20:14:57.751Z,37.05
2023-04-06T20:18:02.284Z,37.37
2023-04-06T20:21:05.341Z,37.68
2023-04-06T20:24:08.057Z,38.11
2023-04-06T20:27:11.002Z,38.89
2023-04-06T20:30:14.952Z,39.18
2023-04-06T20:33:18.949Z,39.77
2023-04-06T20:36:23.107Z,39.84
2023-04-06T20:39:27.308Z,39.89
2023-04-06T20:42:30.066Z,40.36
2023-04-06T20:45:38.270Z,40.81
2023-04-06T20:48:42.308Z,41.02
2023-04-06T20:51:45.769Z,41.55
2023-04-06T20:54:48.508Z,41.78
2023-04-06T20:57:51.335Z,41.32
2023-04-06T21:00:54.688Z,41.71
2023-04-06T21:04:00.584Z,42.05
2023-04-06T21:07:05.916Z,42.59
2023-04-06T21:10:09.493Z,43.15
2023-04-06T21:13:12.212Z,43.94
2023-04-06T21:16:15.018Z,44.41
2023-04-06T21:19:19.175Z,45.15
2023-04-06T21:22:21.888Z,45.65
2023-04-06T21:25:24.511Z,46.28
2023-04-06T21:28:27.831Z,47.01
2023-04-06T21:31:30.615Z,47.55
2023-04-06T21:34:34.964Z,47.66
2023-04-06T21:37:37.690Z,48.11
2023-04-06T21:40:40.336Z,48.90
2023-04-06T21:43:42.985Z,48.82
2023-04-06T21:46:45.713Z,48.98
2023-04-06T21:49:49.851Z,49.28
2023-04-06T21:52:52.617Z,49.52
2023-04-06T21:55:55.269Z,50.33
2023-04-06T21:58:57.954Z,51.28
2023-04-06T22:02:01.160Z,52.23
2023-04-06T22:05:06.015Z,52.73
2023-04-06T22:08:13.032Z,52.81
2023-04-06T22:11:21.137Z,53.29
2023-04-06T22:14:23.998Z,53.79
2023-04-06T22:17:27.318Z,53.88
2023-04-06T22:20:31.728Z,54.77
2023-04-06T22:23:34.450Z,54.89
2023-04-06T22:26:37.930Z,56.02
2023-04-06T22:29:40.794Z,56.11
2023-04-06T22:32:43.510Z,56.37
2023-04-06T22:35:47.536Z,57.37
2023-04-06T22:38:51.015Z,57.55
2023-04-06T22:41:53.671Z,58.44
2023-04-06T22:44:56.337Z,58.75
2023-04-06T22:47:59.045Z,58.69
2023-04-06T22:51:03.120Z,59.22
2023-04-06T22:54:05.935Z,59.47
2023-04-06T22:57:08.768Z,61.77
2023-04-06T23:00:13.140Z,63.15
2023-04-06T23:03:15.974Z,64.56
2023-04-06T23:06:20.100Z,67.04
2023-04-06T23:09:22.837Z,68.39
2023-04-06T23:12:25.828Z,68.26
2023-04-06T23:15:28.672Z,68.80
2023-04-06T23:18:31.645Z,69.44
2023-04-06T23:21:35.773Z,69.58
2023-04-06T23:24:38.519Z,70.84
2023-04-06T23:27:41.264Z,71.87
2023-04-06T23:30:43.969Z,73.23
2023-04-06T23:33:46.711Z,73.62
2023-04-06T23:36:51.058Z,75.51
2023-04-06T23:39:53.843Z,76.34
2023-04-06T23:42:56.516Z,75.61
2023-04-06T23:45:59.270Z,76.02
2023-04-06T23:49:01.989Z,77.60
2023-04-06T23:52:06.218Z,76.58
2023-04-06T23:55:09.626Z,76.40
2023-04-06T23:58:12.311Z,78.26
